»·PEaware :: N982CA KBUR-KLAS

N982CA :: KBUR-KLAS

FLIGHT INFORMATION

Flight Status: Arrived
Operator: Privately registered:
United States
More flights under this callsign
Pilot: David C. (25479)
Aircraft: SOCATA TBM-900
(TBM9)
More flights by this aircraft type
Origin: KBUR Bob Hope-Burbank
United States
Destination: KLAS McCarran Intl
United States
More flights between these airports :: More routes between these airports
Route: VNY3 DAG CRESO4
File this flight plan on PilotEdge
Remarks:
Altitude:
(Current/Filed)
14,000ft
Speed:
(Current/Filed)
190kts
Departed: 03-Jan-21 07:01 PM
Arrived: 03-Jan-21 08:15 PM
Distance/Time
Traveled:
193nm/1:14
Distance/Time
To Go:
Arrived

Flight Plot

Page will automatically refresh every two minutes.

Flight plan parsing failed; only flown route is shown


Map Options




Map Legend


Flown Route
Filed Route
Departure Airport
Arrival Airport
Navaid (VOR, NDB)
Fix

Horizontal Profiles

Position Reports

Time Latitude Longitude Heading Altitude Ground
Speed
03-Jan-21 18:49 34.196035 -118.354988 215 705ft 0kts
03-Jan-21 18:50 34.196035 -118.354988 215 705ft 0kts
03-Jan-21 18:52 34.196003 -118.355155 277 705ft 0kts
03-Jan-21 18:52 34.196003 -118.355155 277 705ft 0kts
03-Jan-21 18:53 34.196003 -118.355155 277 705ft 0kts
03-Jan-21 18:54 34.196003 -118.355155 277 705ft 0kts
03-Jan-21 18:55 34.196003 -118.355155 277 705ft 0kts
03-Jan-21 18:56 34.197267 -118.354524 76 712ft 14kts
03-Jan-21 18:57 34.197236 -118.350233 37 701ft 0kts
03-Jan-21 18:58 34.197236 -118.350233 37 701ft 0kts
03-Jan-21 18:59 34.197236 -118.350233 37 701ft 0kts
03-Jan-21 19:00 34.197648 -118.352009 270 705ft 43kts
03-Jan-21 19:01 34.202859 -118.381410 282 1321ft 102kts
03-Jan-21 19:02 34.212015 -118.414139 287 2043ft 104kts
03-Jan-21 19:03 34.212288 -118.446947 284 2725ft 105kts
03-Jan-21 19:04 34.218481 -118.482187 281 3430ft 108kts
03-Jan-21 19:05 34.221909 -118.524824 269 4103ft 150kts
03-Jan-21 19:06 34.228725 -118.575954 322 4833ft 166kts
03-Jan-21 19:07 34.271744 -118.598167 339 5553ft 172kts
03-Jan-21 19:08 34.315616 -118.596352 39 6450ft 170kts
03-Jan-21 19:09 34.340671 -118.548257 59 7365ft 168kts
03-Jan-21 19:10 34.362893 -118.498791 59 8291ft 167kts
03-Jan-21 19:11 34.386794 -118.449346 49 8952ft 180kts
03-Jan-21 19:12 34.420791 -118.400446 52 8991ft 200kts
03-Jan-21 19:13 34.456627 -118.343309 51 8999ft 220kts
03-Jan-21 19:14 34.494137 -118.283544 51 8997ft 224kts
03-Jan-21 19:15 34.531620 -118.223690 51 9138ft 218kts
03-Jan-21 19:16 34.566228 -118.168308 50 10084ft 199kts
03-Jan-21 19:17 34.599470 -118.115061 46 11097ft 198kts
03-Jan-21 19:18 34.629631 -118.058838 65 12103ft 207kts
03-Jan-21 19:19 34.639700 -117.988207 76 12941ft 221kts
03-Jan-21 19:20 34.648283 -117.909815 77 13008ft 244kts
03-Jan-21 19:21 34.657268 -117.827030 77 12996ft 251kts
03-Jan-21 19:22 34.669025 -117.743538 69 12997ft 249kts
03-Jan-21 19:23 34.689849 -117.663526 67 12997ft 249kts
03-Jan-21 19:24 34.710413 -117.583153 67 12994ft 250kts
03-Jan-21 19:25 34.730956 -117.502661 67 12992ft 249kts
03-Jan-21 19:26 34.751390 -117.422387 67 12998ft 249kts
03-Jan-21 19:27 34.771825 -117.341838 67 12996ft 249kts
03-Jan-21 19:28 34.792226 -117.261193 68 13000ft 249kts
03-Jan-21 19:29 34.814017 -117.174784 68 13018ft 283kts
03-Jan-21 19:30 34.837375 -117.081772 68 13004ft 291kts
03-Jan-21 19:31 34.861376 -116.985932 69 13008ft 302kts
03-Jan-21 19:32 34.885828 -116.887867 69 12994ft 302kts
03-Jan-21 19:33 34.910145 -116.790021 69 12998ft 302kts
03-Jan-21 19:34 34.934334 -116.692267 69 12998ft 302kts
03-Jan-21 19:35 34.959312 -116.594909 65 13001ft 301kts
03-Jan-21 19:36 34.995479 -116.503762 57 12993ft 297kts
03-Jan-21 19:37 35.034836 -116.415371 57 13020ft 298kts
03-Jan-21 19:38 35.074350 -116.326149 57 13052ft 299kts
03-Jan-21 19:39 35.113975 -116.236403 57 13020ft 300kts
03-Jan-21 19:40 35.153536 -116.146630 57 12994ft 299kts
03-Jan-21 19:41 35.192649 -116.057549 58 12993ft 297kts
03-Jan-21 19:42 35.228638 -115.975513 58 12994ft 258kts
03-Jan-21 19:43 35.261770 -115.899764 58 13004ft 249kts
03-Jan-21 19:44 35.294272 -115.825241 58 12773ft 247kts
03-Jan-21 19:45 35.331980 -115.758689 41 11776ft 232kts
03-Jan-21 19:46 35.374993 -115.701452 43 10764ft 227kts
03-Jan-21 19:47 35.417324 -115.644897 43 10062ft 216kts
03-Jan-21 19:48 35.456001 -115.593188 42 10006ft 198kts
03-Jan-21 19:49 35.496500 -115.538943 43 10007ft 226kts
03-Jan-21 19:50 35.539769 -115.480948 43 9997ft 232kts
03-Jan-21 19:51 35.583660 -115.422113 47 10001ft 233kts
03-Jan-21 19:52 35.627420 -115.363216 44 10036ft 235kts
03-Jan-21 19:53 35.671777 -115.303389 43 10046ft 237kts
03-Jan-21 19:54 35.715276 -115.244685 43 10055ft 220kts
03-Jan-21 19:55 35.755477 -115.190337 43 10036ft 211kts
03-Jan-21 19:56 35.794670 -115.137267 43 9996ft 207kts
03-Jan-21 19:57 35.832837 -115.084521 43 10030ft 206kts
03-Jan-21 19:58 35.870935 -115.029373 46 10020ft 212kts
03-Jan-21 19:59 35.907757 -114.973643 47 10017ft 208kts
03-Jan-21 20:00 35.938947 -114.925637 48 9893ft 169kts
03-Jan-21 20:01 35.986143 -114.912769 2 9068ft 141kts
03-Jan-21 20:02 36.024355 -114.909628 2 8182ft 137kts
03-Jan-21 20:03 36.063019 -114.906634 2 7104ft 139kts
03-Jan-21 20:04 36.101382 -114.903673 2 6008ft 137kts
03-Jan-21 20:05 36.131842 -114.911311 252 5536ft 117kts
03-Jan-21 20:06 36.140121 -114.936218 10 5473ft 116kts
03-Jan-21 20:07 36.154420 -114.964889 282 5533ft 113kts
03-Jan-21 20:08 36.161925 -115.002794 286 5150ft 114kts
03-Jan-21 20:09 36.170762 -115.039523 282 4773ft 115kts
03-Jan-21 20:10 36.181322 -115.081974 281 3809ft 133kts
03-Jan-21 20:11 36.166683 -115.116829 201 2798ft 125kts
03-Jan-21 20:12 36.137824 -115.134005 207 2507ft 115kts
03-Jan-21 20:13 36.110015 -115.150299 207 2321ft 105kts
03-Jan-21 20:14 36.090041 -115.161869 198 2136ft 37kts
03-Jan-21 20:15 36.089414 -115.163507 293 2143ft 0kts
03-Jan-21 20:16 36.089414 -115.163507 293 2143ft 0kts
03-Jan-21 20:17 36.089674 -115.164101 292 2142ft 13kts
03-Jan-21 20:18 36.091742 -115.166020 232 2131ft 0kts

Navigation Log

Ident Type
Flight plan parsing failed, navigation log unavailable